sensor_id;sensor_type;location;lat;lon;timestamp;P1;durP1;ratioP1;P2;durP2;ratioP2
31378;SDS011;61664;48.112;11.662;2023-12-20T00:02:16;1.52;;;1.40;;
31378;SDS011;61664;48.112;11.662;2023-12-20T00:04:43;1.50;;;1.40;;
31378;SDS011;61664;48.112;11.662;2023-12-20T00:07:11;1.58;;;1.48;;
31378;SDS011;61664;48.112;11.662;2023-12-20T00:09:38;1.60;;;1.50;;
31378;SDS011;61664;48.112;11.662;2023-12-20T00:12:05;1.80;;;1.70;;
31378;SDS011;61664;48.112;11.662;2023-12-20T00:14:32;1.17;;;1.08;;
31378;SDS011;61664;48.112;11.662;2023-12-20T00:16:59;1.33;;;1.23;;
31378;SDS011;61664;48.112;11.662;2023-12-20T00:19:26;2.03;;;1.85;;
31378;SDS011;61664;48.112;11.662;2023-12-20T00:21:53;1.77;;;1.58;;
31378;SDS011;61664;48.112;11.662;2023-12-20T00:24:20;1.40;;;1.30;;
31378;SDS011;61664;48.112;11.662;2023-12-20T00:26:46;1.10;;;1.00;;
31378;SDS011;61664;48.112;11.662;2023-12-20T00:29:13;1.17;;;1.08;;
31378;SDS011;61664;48.112;11.662;2023-12-20T00:31:40;1.50;;;1.23;;
31378;SDS011;61664;48.112;11.662;2023-12-20T00:34:07;1.67;;;1.58;;
31378;SDS011;61664;48.112;11.662;2023-12-20T00:36:35;1.20;;;1.10;;
31378;SDS011;61664;48.112;11.662;2023-12-20T00:39:02;1.70;;;1.60;;
31378;SDS011;61664;48.112;11.662;2023-12-20T00:41:29;1.05;;;1.02;;
31378;SDS011;61664;48.112;11.662;2023-12-20T00:43:56;1.63;;;1.45;;
31378;SDS011;61664;48.112;11.662;2023-12-20T00:46:23;1.20;;;1.10;;
31378;SDS011;61664;48.112;11.662;2023-12-20T00:48:50;1.08;;;1.00;;
31378;SDS011;61664;48.112;11.662;2023-12-20T00:51:17;1.23;;;1.13;;
31378;SDS011;61664;48.112;11.662;2023-12-20T00:53:44;1.30;;;1.20;;
31378;SDS011;61664;48.112;11.662;2023-12-20T00:58:42;1.92;;;0.80;;
31378;SDS011;61664;48.112;11.662;2023-12-20T01:01:09;1.80;;;1.20;;
31378;SDS011;61664;48.112;11.662;2023-12-20T01:03:36;1.20;;;1.00;;
31378;SDS011;61664;48.112;11.662;2023-12-20T01:06:03;0.77;;;0.77;;
31378;SDS011;61664;48.112;11.662;2023-12-20T01:08:31;0.95;;;0.88;;
31378;SDS011;61664;48.112;11.662;2023-12-20T01:10:58;1.75;;;1.08;;
31378;SDS011;61664;48.112;11.662;2023-12-20T01:13:25;1.25;;;0.88;;
31378;SDS011;61664;48.112;11.662;2023-12-20T01:15:52;1.23;;;1.13;;
31378;SDS011;61664;48.112;11.662;2023-12-20T01:18:19;1.50;;;1.40;;
31378;SDS011;61664;48.112;11.662;2023-12-20T01:20:46;0.88;;;0.85;;
31378;SDS011;61664;48.112;11.662;2023-12-20T01:23:13;0.90;;;0.85;;
31378;SDS011;61664;48.112;11.662;2023-12-20T01:25:39;1.20;;;1.10;;
31378;SDS011;61664;48.112;11.662;2023-12-20T01:28:06;1.23;;;1.13;;
31378;SDS011;61664;48.112;11.662;2023-12-20T01:30:33;0.77;;;0.77;;
31378;SDS011;61664;48.112;11.662;2023-12-20T01:33:01;1.40;;;0.98;;
31378;SDS011;61664;48.112;11.662;2023-12-20T01:35:28;1.95;;;0.90;;
31378;SDS011;61664;48.112;11.662;2023-12-20T01:37:55;2.15;;;0.80;;
31378;SDS011;61664;48.112;11.662;2023-12-20T01:40:23;1.08;;;1.08;;
31378;SDS011;61664;48.112;11.662;2023-12-20T01:42:59;0.80;;;0.80;;
31378;SDS011;61664;48.112;11.662;2023-12-20T01:45:44;1.10;;;1.00;;
31378;SDS011;61664;48.112;11.662;2023-12-20T01:48:13;1.25;;;1.00;;
31378;SDS011;61664;48.112;11.662;2023-12-20T01:50:43;0.82;;;0.82;;
31378;SDS011;61664;48.112;11.662;2023-12-20T01:53:11;0.70;;;0.70;;
31378;SDS011;61664;48.112;11.662;2023-12-20T01:55:40;0.85;;;0.85;;
31378;SDS011;61664;48.112;11.662;2023-12-20T01:58:08;0.93;;;0.85;;
31378;SDS011;61664;48.112;11.662;2023-12-20T02:00:37;2.95;;;0.90;;
31378;SDS011;61664;48.112;11.662;2023-12-20T02:03:05;0.90;;;0.90;;
31378;SDS011;61664;48.112;11.662;2023-12-20T02:05:33;0.65;;;0.65;;
31378;SDS011;61664;48.112;11.662;2023-12-20T02:08:03;0.70;;;0.63;;
31378;SDS011;61664;48.112;11.662;2023-12-20T02:10:31;0.80;;;0.70;;
31378;SDS011;61664;48.112;11.662;2023-12-20T02:12:59;0.73;;;0.60;;
31378;SDS011;61664;48.112;11.662;2023-12-20T02:15:26;0.60;;;0.60;;
31378;SDS011;61664;48.112;11.662;2023-12-20T02:17:53;0.40;;;0.40;;
31378;SDS011;61664;48.112;11.662;2023-12-20T02:20:20;0.40;;;0.40;;
31378;SDS011;61664;48.112;11.662;2023-12-20T02:22:47;0.70;;;0.50;;
31378;SDS011;61664;48.112;11.662;2023-12-20T02:25:14;0.47;;;0.45;;
31378;SDS011;61664;48.112;11.662;2023-12-20T02:27:42;0.60;;;0.60;;
31378;SDS011;61664;48.112;11.662;2023-12-20T02:30:10;0.50;;;0.40;;
31378;SDS011;61664;48.112;11.662;2023-12-20T02:32:37;0.50;;;0.40;;
31378;SDS011;61664;48.112;11.662;2023-12-20T02:35:04;0.50;;;0.50;;
31378;SDS011;61664;48.112;11.662;2023-12-20T02:37:32;1.40;;;0.50;;
31378;SDS011;61664;48.112;11.662;2023-12-20T02:40:00;0.38;;;0.32;;
31378;SDS011;61664;48.112;11.662;2023-12-20T02:42:27;0.75;;;0.50;;
31378;SDS011;61664;48.112;11.662;2023-12-20T02:44:54;0.65;;;0.65;;
31378;SDS011;61664;48.112;11.662;2023-12-20T02:47:21;0.40;;;0.32;;
31378;SDS011;61664;48.112;11.662;2023-12-20T02:49:48;0.40;;;0.40;;
31378;SDS011;61664;48.112;11.662;2023-12-20T02:52:15;0.40;;;0.40;;
31378;SDS011;61664;48.112;11.662;2023-12-20T02:54:43;0.52;;;0.35;;
31378;SDS011;61664;48.112;11.662;2023-12-20T02:57:10;0.40;;;0.40;;
31378;SDS011;61664;48.112;11.662;2023-12-20T02:59:36;0.55;;;0.43;;
31378;SDS011;61664;48.112;11.662;2023-12-20T03:02:03;0.35;;;0.35;;
31378;SDS011;61664;48.112;11.662;2023-12-20T03:04:31;0.40;;;0.40;;
31378;SDS011;61664;48.112;11.662;2023-12-20T03:06:58;0.43;;;0.43;;
31378;SDS011;61664;48.112;11.662;2023-12-20T03:09:25;0.40;;;0.35;;
31378;SDS011;61664;48.112;11.662;2023-12-20T03:11:52;0.45;;;0.45;;
31378;SDS011;61664;48.112;11.662;2023-12-20T03:14:18;0.60;;;0.60;;
31378;SDS011;61664;48.112;11.662;2023-12-20T03:16:54;0.38;;;0.38;;
31378;SDS011;61664;48.112;11.662;2023-12-20T03:19:25;0.60;;;0.50;;
31378;SDS011;61664;48.112;11.662;2023-12-20T03:21:52;0.30;;;0.30;;
31378;SDS011;61664;48.112;11.662;2023-12-20T03:24:20;0.45;;;0.45;;
31378;SDS011;61664;48.112;11.662;2023-12-20T03:26:46;0.40;;;0.40;;
31378;SDS011;61664;48.112;11.662;2023-12-20T03:29:13;0.40;;;0.38;;
31378;SDS011;61664;48.112;11.662;2023-12-20T03:31:40;0.45;;;0.43;;
31378;SDS011;61664;48.112;11.662;2023-12-20T03:34:07;0.20;;;0.20;;
31378;SDS011;61664;48.112;11.662;2023-12-20T03:36:34;0.60;;;0.60;;
31378;SDS011;61664;48.112;11.662;2023-12-20T03:39:01;0.50;;;0.50;;
31378;SDS011;61664;48.112;11.662;2023-12-20T03:41:29;2.72;;;0.88;;
31378;SDS011;61664;48.112;11.662;2023-12-20T03:43:55;0.63;;;0.63;;
31378;SDS011;61664;48.112;11.662;2023-12-20T03:46:22;0.50;;;0.50;;
31378;SDS011;61664;48.112;11.662;2023-12-20T03:48:49;0.55;;;0.52;;
31378;SDS011;61664;48.112;11.662;2023-12-20T03:51:16;0.50;;;0.40;;
31378;SDS011;61664;48.112;11.662;2023-12-20T03:53:43;0.30;;;0.30;;
31378;SDS011;61664;48.112;11.662;2023-12-20T03:56:10;0.40;;;0.40;;
31378;SDS011;61664;48.112;11.662;2023-12-20T03:58:37;0.45;;;0.30;;
31378;SDS011;61664;48.112;11.662;2023-12-20T04:01:08;0.35;;;0.30;;
31378;SDS011;61664;48.112;11.662;2023-12-20T04:03:38;0.30;;;0.30;;
31378;SDS011;61664;48.112;11.662;2023-12-20T04:06:06;0.43;;;0.40;;
31378;SDS011;61664;48.112;11.662;2023-12-20T04:08:33;0.35;;;0.35;;
31378;SDS011;61664;48.112;11.662;2023-12-20T04:11:00;0.40;;;0.40;;
31378;SDS011;61664;48.112;11.662;2023-12-20T04:13:27;0.30;;;0.30;;
31378;SDS011;61664;48.112;11.662;2023-12-20T04:15:54;0.65;;;0.40;;
31378;SDS011;61664;48.112;11.662;2023-12-20T04:18:21;0.30;;;0.30;;
31378;SDS011;61664;48.112;11.662;2023-12-20T04:20:48;0.32;;;0.30;;
31378;SDS011;61664;48.112;11.662;2023-12-20T04:23:16;0.90;;;0.40;;
31378;SDS011;61664;48.112;11.662;2023-12-20T04:25:42;0.22;;;0.22;;
31378;SDS011;61664;48.112;11.662;2023-12-20T04:28:09;0.32;;;0.30;;
31378;SDS011;61664;48.112;11.662;2023-12-20T04:30:36;0.32;;;0.32;;
31378;SDS011;61664;48.112;11.662;2023-12-20T04:33:03;0.63;;;0.40;;
31378;SDS011;61664;48.112;11.662;2023-12-20T04:35:30;0.30;;;0.30;;
31378;SDS011;61664;48.112;11.662;2023-12-20T04:37:57;0.38;;;0.38;;
31378;SDS011;61664;48.112;11.662;2023-12-20T04:40:24;0.28;;;0.28;;
31378;SDS011;61664;48.112;11.662;2023-12-20T04:42:51;0.30;;;0.30;;
31378;SDS011;61664;48.112;11.662;2023-12-20T04:45:18;0.30;;;0.30;;
31378;SDS011;61664;48.112;11.662;2023-12-20T04:47:46;0.40;;;0.40;;
31378;SDS011;61664;48.112;11.662;2023-12-20T04:50:13;0.68;;;0.43;;
31378;SDS011;61664;48.112;11.662;2023-12-20T04:52:41;1.42;;;0.38;;
31378;SDS011;61664;48.112;11.662;2023-12-20T04:55:08;0.40;;;0.40;;
31378;SDS011;61664;48.112;11.662;2023-12-20T04:57:35;0.20;;;0.20;;
31378;SDS011;61664;48.112;11.662;2023-12-20T05:00:02;0.40;;;0.40;;
31378;SDS011;61664;48.112;11.662;2023-12-20T05:02:30;0.57;;;0.50;;
31378;SDS011;61664;48.112;11.662;2023-12-20T05:04:57;0.50;;;0.50;;
31378;SDS011;61664;48.112;11.662;2023-12-20T05:07:24;0.70;;;0.70;;
31378;SDS011;61664;48.112;11.662;2023-12-20T05:09:51;0.65;;;0.65;;
31378;SDS011;61664;48.112;11.662;2023-12-20T05:12:19;1.27;;;1.17;;
31378;SDS011;61664;48.112;11.662;2023-12-20T05:14:46;1.20;;;1.10;;
31378;SDS011;61664;48.112;11.662;2023-12-20T05:17:13;0.90;;;0.90;;
31378;SDS011;61664;48.112;11.662;2023-12-20T05:19:40;0.80;;;0.75;;
31378;SDS011;61664;48.112;11.662;2023-12-20T05:22:07;0.93;;;0.80;;
31378;SDS011;61664;48.112;11.662;2023-12-20T05:24:34;1.15;;;0.60;;
31378;SDS011;61664;48.112;11.662;2023-12-20T05:27:00;0.68;;;0.68;;
31378;SDS011;61664;48.112;11.662;2023-12-20T05:29:27;0.80;;;0.80;;
31378;SDS011;61664;48.112;11.662;2023-12-20T05:31:54;1.30;;;1.00;;
31378;SDS011;61664;48.112;11.662;2023-12-20T05:34:21;0.70;;;0.70;;
31378;SDS011;61664;48.112;11.662;2023-12-20T05:36:48;0.60;;;0.60;;
31378;SDS011;61664;48.112;11.662;2023-12-20T05:39:15;1.05;;;0.95;;
31378;SDS011;61664;48.112;11.662;2023-12-20T05:41:42;3.03;;;0.80;;
31378;SDS011;61664;48.112;11.662;2023-12-20T05:44:09;2.00;;;0.77;;
31378;SDS011;61664;48.112;11.662;2023-12-20T05:46:36;2.08;;;0.80;;
31378;SDS011;61664;48.112;11.662;2023-12-20T05:49:03;0.93;;;0.93;;
31378;SDS011;61664;48.112;11.662;2023-12-20T05:51:31;0.80;;;0.75;;
31378;SDS011;61664;48.112;11.662;2023-12-20T05:53:58;1.25;;;1.05;;
31378;SDS011;61664;48.112;11.662;2023-12-20T05:56:25;0.80;;;0.70;;
31378;SDS011;61664;48.112;11.662;2023-12-20T05:58:52;1.00;;;0.85;;
31378;SDS011;61664;48.112;11.662;2023-12-20T06:01:19;1.88;;;1.20;;
31378;SDS011;61664;48.112;11.662;2023-12-20T06:03:46;0.80;;;0.73;;
31378;SDS011;61664;48.112;11.662;2023-12-20T06:06:13;0.80;;;0.80;;
31378;SDS011;61664;48.112;11.662;2023-12-20T06:08:42;1.25;;;1.15;;
31378;SDS011;61664;48.112;11.662;2023-12-20T06:11:10;1.00;;;0.70;;
31378;SDS011;61664;48.112;11.662;2023-12-20T06:13:37;1.15;;;1.05;;
31378;SDS011;61664;48.112;11.662;2023-12-20T06:16:05;1.40;;;1.30;;
31378;SDS011;61664;48.112;11.662;2023-12-20T06:18:33;0.73;;;0.70;;
31378;SDS011;61664;48.112;11.662;2023-12-20T06:21:00;0.75;;;0.75;;
31378;SDS011;61664;48.112;11.662;2023-12-20T06:23:28;1.20;;;1.10;;
31378;SDS011;61664;48.112;11.662;2023-12-20T06:25:55;1.13;;;1.02;;
31378;SDS011;61664;48.112;11.662;2023-12-20T06:28:22;0.95;;;0.95;;
31378;SDS011;61664;48.112;11.662;2023-12-20T06:30:49;1.10;;;1.00;;
31378;SDS011;61664;48.112;11.662;2023-12-20T06:33:18;1.33;;;1.15;;
31378;SDS011;61664;48.112;11.662;2023-12-20T06:35:47;0.70;;;0.70;;
31378;SDS011;61664;48.112;11.662;2023-12-20T06:38:15;1.13;;;1.02;;
31378;SDS011;61664;48.112;11.662;2023-12-20T06:40:44;0.75;;;0.75;;
31378;SDS011;61664;48.112;11.662;2023-12-20T06:43:12;0.90;;;0.70;;
31378;SDS011;61664;48.112;11.662;2023-12-20T06:45:57;1.05;;;0.95;;
31378;SDS011;61664;48.112;11.662;2023-12-20T06:48:26;0.77;;;0.70;;
31378;SDS011;61664;48.112;11.662;2023-12-20T06:50:53;1.00;;;0.80;;
31378;SDS011;61664;48.112;11.662;2023-12-20T06:53:20;0.55;;;0.52;;
31378;SDS011;61664;48.112;11.662;2023-12-20T06:55:47;1.52;;;0.90;;
31378;SDS011;61664;48.112;11.662;2023-12-20T06:58:14;1.27;;;1.17;;
31378;SDS011;61664;48.112;11.662;2023-12-20T07:00:41;4.95;;;3.42;;
31378;SDS011;61664;48.112;11.662;2023-12-20T07:03:09;1.15;;;1.05;;
31378;SDS011;61664;48.112;11.662;2023-12-20T07:05:36;2.00;;;1.80;;
31378;SDS011;61664;48.112;11.662;2023-12-20T07:08:03;2.42;;;2.13;;
31378;SDS011;61664;48.112;11.662;2023-12-20T07:10:32;1.27;;;0.90;;
31378;SDS011;61664;48.112;11.662;2023-12-20T07:12:59;0.75;;;0.75;;
31378;SDS011;61664;48.112;11.662;2023-12-20T07:15:26;0.90;;;0.50;;
31378;SDS011;61664;48.112;11.662;2023-12-20T07:17:55;0.40;;;0.35;;
31378;SDS011;61664;48.112;11.662;2023-12-20T07:20:22;0.40;;;0.40;;
31378;SDS011;61664;48.112;11.662;2023-12-20T07:22:49;0.50;;;0.50;;
31378;SDS011;61664;48.112;11.662;2023-12-20T07:25:16;0.60;;;0.60;;
31378;SDS011;61664;48.112;11.662;2023-12-20T07:27:44;0.43;;;0.43;;
31378;SDS011;61664;48.112;11.662;2023-12-20T07:30:11;0.50;;;0.50;;
31378;SDS011;61664;48.112;11.662;2023-12-20T07:32:38;0.70;;;0.70;;
31378;SDS011;61664;48.112;11.662;2023-12-20T07:35:06;0.50;;;0.50;;
31378;SDS011;61664;48.112;11.662;2023-12-20T07:37:33;0.80;;;0.60;;
31378;SDS011;61664;48.112;11.662;2023-12-20T07:40:00;1.00;;;0.57;;
31378;SDS011;61664;48.112;11.662;2023-12-20T07:42:28;0.50;;;0.50;;
31378;SDS011;61664;48.112;11.662;2023-12-20T07:44:55;0.47;;;0.47;;
31378;SDS011;61664;48.112;11.662;2023-12-20T07:47:22;0.50;;;0.50;;
31378;SDS011;61664;48.112;11.662;2023-12-20T07:49:49;0.40;;;0.30;;
31378;SDS011;61664;48.112;11.662;2023-12-20T07:52:18;0.88;;;0.30;;
31378;SDS011;61664;48.112;11.662;2023-12-20T07:54:45;0.60;;;0.32;;
31378;SDS011;61664;48.112;11.662;2023-12-20T07:57:12;0.50;;;0.50;;
31378;SDS011;61664;48.112;11.662;2023-12-20T07:59:39;0.50;;;0.50;;
31378;SDS011;61664;48.112;11.662;2023-12-20T08:02:06;0.40;;;0.40;;
31378;SDS011;61664;48.112;11.662;2023-12-20T08:04:33;0.40;;;0.40;;
31378;SDS011;61664;48.112;11.662;2023-12-20T08:07:00;0.40;;;0.40;;
31378;SDS011;61664;48.112;11.662;2023-12-20T08:09:28;0.50;;;0.50;;
31378;SDS011;61664;48.112;11.662;2023-12-20T08:11:55;0.70;;;0.40;;
31378;SDS011;61664;48.112;11.662;2023-12-20T08:14:22;0.60;;;0.60;;
31378;SDS011;61664;48.112;11.662;2023-12-20T08:16:49;0.40;;;0.40;;
31378;SDS011;61664;48.112;11.662;2023-12-20T08:19:16;0.60;;;0.60;;
31378;SDS011;61664;48.112;11.662;2023-12-20T08:21:43;0.68;;;0.68;;
31378;SDS011;61664;48.112;11.662;2023-12-20T08:24:10;0.55;;;0.50;;
31378;SDS011;61664;48.112;11.662;2023-12-20T08:26:37;0.90;;;0.90;;
31378;SDS011;61664;48.112;11.662;2023-12-20T08:29:04;2.88;;;0.65;;
31378;SDS011;61664;48.112;11.662;2023-12-20T08:31:52;0.40;;;0.40;;
31378;SDS011;61664;48.112;11.662;2023-12-20T08:34:20;1.20;;;1.00;;
31378;SDS011;61664;48.112;11.662;2023-12-20T08:36:47;0.60;;;0.60;;
31378;SDS011;61664;48.112;11.662;2023-12-20T08:39:14;0.70;;;0.70;;
31378;SDS011;61664;48.112;11.662;2023-12-20T08:41:41;1.00;;;0.90;;
31378;SDS011;61664;48.112;11.662;2023-12-20T08:44:09;0.50;;;0.50;;
31378;SDS011;61664;48.112;11.662;2023-12-20T08:46:36;0.60;;;0.60;;
31378;SDS011;61664;48.112;11.662;2023-12-20T08:49:03;0.73;;;0.73;;
31378;SDS011;61664;48.112;11.662;2023-12-20T08:51:30;1.85;;;0.80;;
31378;SDS011;61664;48.112;11.662;2023-12-20T08:53:57;0.50;;;0.50;;
31378;SDS011;61664;48.112;11.662;2023-12-20T08:56:24;0.60;;;0.60;;
31378;SDS011;61664;48.112;11.662;2023-12-20T08:58:51;0.60;;;0.60;;
31378;SDS011;61664;48.112;11.662;2023-12-20T09:01:17;0.70;;;0.70;;
31378;SDS011;61664;48.112;11.662;2023-12-20T09:03:44;0.40;;;0.40;;
31378;SDS011;61664;48.112;11.662;2023-12-20T09:06:11;0.47;;;0.45;;
31378;SDS011;61664;48.112;11.662;2023-12-20T09:08:38;0.65;;;0.45;;
31378;SDS011;61664;48.112;11.662;2023-12-20T09:11:06;0.65;;;0.65;;
31378;SDS011;61664;48.112;11.662;2023-12-20T09:13:33;0.82;;;0.80;;
31378;SDS011;61664;48.112;11.662;2023-12-20T09:16:00;0.40;;;0.40;;
31378;SDS011;61664;48.112;11.662;2023-12-20T09:18:27;0.55;;;0.55;;
31378;SDS011;61664;48.112;11.662;2023-12-20T09:20:54;0.40;;;0.40;;
31378;SDS011;61664;48.112;11.662;2023-12-20T09:23:21;0.40;;;0.40;;
31378;SDS011;61664;48.112;11.662;2023-12-20T09:25:48;0.52;;;0.52;;
31378;SDS011;61664;48.112;11.662;2023-12-20T09:28:15;0.65;;;0.65;;
31378;SDS011;61664;48.112;11.662;2023-12-20T09:30:42;0.63;;;0.55;;
31378;SDS011;61664;48.112;11.662;2023-12-20T09:33:11;0.98;;;0.50;;
31378;SDS011;61664;48.112;11.662;2023-12-20T09:35:38;0.57;;;0.57;;
31378;SDS011;61664;48.112;11.662;2023-12-20T09:38:06;0.80;;;0.68;;
31378;SDS011;61664;48.112;11.662;2023-12-20T09:40:33;0.70;;;0.70;;
31378;SDS011;61664;48.112;11.662;2023-12-20T09:43:08;2.58;;;0.60;;
31378;SDS011;61664;48.112;11.662;2023-12-20T09:45:40;0.40;;;0.40;;
31378;SDS011;61664;48.112;11.662;2023-12-20T09:48:08;0.60;;;0.60;;
31378;SDS011;61664;48.112;11.662;2023-12-20T09:50:37;0.57;;;0.57;;
31378;SDS011;61664;48.112;11.662;2023-12-20T09:53:04;0.77;;;0.43;;
31378;SDS011;61664;48.112;11.662;2023-12-20T09:55:35;0.50;;;0.50;;
31378;SDS011;61664;48.112;11.662;2023-12-20T09:58:04;3.53;;;0.65;;
31378;SDS011;61664;48.112;11.662;2023-12-20T10:00:32;0.60;;;0.60;;
31378;SDS011;61664;48.112;11.662;2023-12-20T10:02:59;0.60;;;0.60;;
31378;SDS011;61664;48.112;11.662;2023-12-20T10:05:28;0.50;;;0.50;;
31378;SDS011;61664;48.112;11.662;2023-12-20T10:07:57;11.90;;;1.05;;
31378;SDS011;61664;48.112;11.662;2023-12-20T10:10:26;0.30;;;0.30;;
31378;SDS011;61664;48.112;11.662;2023-12-20T10:13:09;2.05;;;0.40;;
31378;SDS011;61664;48.112;11.662;2023-12-20T10:15:38;0.50;;;0.50;;
31378;SDS011;61664;48.112;11.662;2023-12-20T10:18:05;1.95;;;0.77;;
31378;SDS011;61664;48.112;11.662;2023-12-20T10:20:33;0.40;;;0.40;;
31378;SDS011;61664;48.112;11.662;2023-12-20T10:23:00;0.50;;;0.50;;
31378;SDS011;61664;48.112;11.662;2023-12-20T10:25:28;0.60;;;0.60;;
31378;SDS011;61664;48.112;11.662;2023-12-20T10:30:47;2.88;;;0.50;;
31378;SDS011;61664;48.112;11.662;2023-12-20T10:33:22;0.43;;;0.43;;
31378;SDS011;61664;48.112;11.662;2023-12-20T10:35:55;0.60;;;0.60;;
31378;SDS011;61664;48.112;11.662;2023-12-20T10:38:22;0.47;;;0.47;;
31378;SDS011;61664;48.112;11.662;2023-12-20T10:40:50;2.25;;;0.77;;
31378;SDS011;61664;48.112;11.662;2023-12-20T10:43:27;0.68;;;0.60;;
31378;SDS011;61664;48.112;11.662;2023-12-20T10:45:57;0.98;;;0.88;;
31378;SDS011;61664;48.112;11.662;2023-12-20T10:48:25;0.90;;;0.80;;
31378;SDS011;61664;48.112;11.662;2023-12-20T10:50:56;0.80;;;0.80;;
31378;SDS011;61664;48.112;11.662;2023-12-20T10:53:24;0.60;;;0.60;;
31378;SDS011;61664;48.112;11.662;2023-12-20T10:55:52;1.00;;;0.90;;
31378;SDS011;61664;48.112;11.662;2023-12-20T10:58:23;0.88;;;0.88;;
31378;SDS011;61664;48.112;11.662;2023-12-20T11:00:55;1.30;;;1.20;;
31378;SDS011;61664;48.112;11.662;2023-12-20T11:03:29;0.90;;;0.90;;
31378;SDS011;61664;48.112;11.662;2023-12-20T11:06:03;0.90;;;0.90;;
31378;SDS011;61664;48.112;11.662;2023-12-20T11:14:27;1.30;;;1.00;;
31378;SDS011;61664;48.112;11.662;2023-12-20T11:17:16;1.85;;;1.75;;
31378;SDS011;61664;48.112;11.662;2023-12-20T11:22:24;6.55;;;4.32;;
31378;SDS011;61664;48.112;11.662;2023-12-20T11:24:53;4.55;;;2.72;;
31378;SDS011;61664;48.112;11.662;2023-12-20T11:27:22;5.13;;;3.25;;
31378;SDS011;61664;48.112;11.662;2023-12-20T11:29:57;6.25;;;4.45;;
31378;SDS011;61664;48.112;11.662;2023-12-20T11:37:29;4.55;;;4.07;;
31378;SDS011;61664;48.112;11.662;2023-12-20T11:40:11;8.10;;;5.53;;
31378;SDS011;61664;48.112;11.662;2023-12-20T11:42:49;7.65;;;4.93;;
31378;SDS011;61664;48.112;11.662;2023-12-20T11:45:18;7.68;;;5.72;;
31378;SDS011;61664;48.112;11.662;2023-12-20T11:47:52;6.88;;;4.72;;
31378;SDS011;61664;48.112;11.662;2023-12-20T11:50:21;2.60;;;2.40;;
31378;SDS011;61664;48.112;11.662;2023-12-20T11:52:49;2.38;;;2.17;;
31378;SDS011;61664;48.112;11.662;2023-12-20T11:55:18;2.78;;;2.17;;
31378;SDS011;61664;48.112;11.662;2023-12-20T11:57:45;2.33;;;2.20;;
31378;SDS011;61664;48.112;11.662;2023-12-20T12:00:13;1.48;;;1.38;;
31378;SDS011;61664;48.112;11.662;2023-12-20T12:02:41;1.85;;;1.20;;
31378;SDS011;61664;48.112;11.662;2023-12-20T12:05:11;1.50;;;1.40;;
31378;SDS011;61664;48.112;11.662;2023-12-20T12:07:38;1.67;;;1.58;;
31378;SDS011;61664;48.112;11.662;2023-12-20T12:10:05;1.60;;;1.50;;
31378;SDS011;61664;48.112;11.662;2023-12-20T12:12:34;1.80;;;1.70;;
31378;SDS011;61664;48.112;11.662;2023-12-20T12:15:01;1.50;;;1.40;;
31378;SDS011;61664;48.112;11.662;2023-12-20T12:17:29;1.42;;;1.33;;
31378;SDS011;61664;48.112;11.662;2023-12-20T12:20:04;1.63;;;1.52;;
31378;SDS011;61664;48.112;11.662;2023-12-20T12:22:34;1.10;;;0.95;;
31378;SDS011;61664;48.112;11.662;2023-12-20T12:25:11;1.33;;;1.20;;
31378;SDS011;61664;48.112;11.662;2023-12-20T12:27:41;0.90;;;0.85;;
31378;SDS011;61664;48.112;11.662;2023-12-20T12:30:09;1.33;;;1.23;;
31378;SDS011;61664;48.112;11.662;2023-12-20T12:32:39;0.90;;;0.90;;
31378;SDS011;61664;48.112;11.662;2023-12-20T12:35:07;1.23;;;1.13;;
31378;SDS011;61664;48.112;11.662;2023-12-20T12:37:37;1.30;;;1.20;;
31378;SDS011;61664;48.112;11.662;2023-12-20T12:40:09;1.20;;;1.10;;
31378;SDS011;61664;48.112;11.662;2023-12-20T12:42:39;1.48;;;1.38;;
31378;SDS011;61664;48.112;11.662;2023-12-20T12:45:08;0.82;;;0.82;;
31378;SDS011;61664;48.112;11.662;2023-12-20T12:47:37;1.88;;;1.75;;
31378;SDS011;61664;48.112;11.662;2023-12-20T12:50:05;1.00;;;1.00;;
31378;SDS011;61664;48.112;11.662;2023-12-20T12:52:33;1.52;;;1.42;;
31378;SDS011;61664;48.112;11.662;2023-12-20T12:55:01;1.27;;;1.17;;
31378;SDS011;61664;48.112;11.662;2023-12-20T12:57:31;1.30;;;1.20;;
31378;SDS011;61664;48.112;11.662;2023-12-20T13:00:00;1.63;;;1.52;;
31378;SDS011;61664;48.112;11.662;2023-12-20T13:02:27;1.23;;;1.13;;
31378;SDS011;61664;48.112;11.662;2023-12-20T13:04:54;3.20;;;2.08;;
31378;SDS011;61664;48.112;11.662;2023-12-20T13:07:21;1.77;;;1.67;;
31378;SDS011;61664;48.112;11.662;2023-12-20T13:09:48;1.85;;;1.75;;
31378;SDS011;61664;48.112;11.662;2023-12-20T13:12:15;1.67;;;1.58;;
31378;SDS011;61664;48.112;11.662;2023-12-20T13:14:41;1.52;;;1.42;;
31378;SDS011;61664;48.112;11.662;2023-12-20T13:17:08;1.20;;;1.20;;
31378;SDS011;61664;48.112;11.662;2023-12-20T13:19:38;1.77;;;1.67;;
31378;SDS011;61664;48.112;11.662;2023-12-20T13:22:06;2.08;;;1.92;;
31378;SDS011;61664;48.112;11.662;2023-12-20T13:24:33;2.58;;;1.40;;
31378;SDS011;61664;48.112;11.662;2023-12-20T13:27:00;1.50;;;1.40;;
31378;SDS011;61664;48.112;11.662;2023-12-20T13:29:27;1.40;;;1.30;;
31378;SDS011;61664;48.112;11.662;2023-12-20T13:31:54;1.55;;;1.42;;
31378;SDS011;61664;48.112;11.662;2023-12-20T13:34:21;1.10;;;1.10;;
31378;SDS011;61664;48.112;11.662;2023-12-20T13:36:48;1.50;;;1.40;;
31378;SDS011;61664;48.112;11.662;2023-12-20T13:39:17;2.40;;;1.70;;
31378;SDS011;61664;48.112;11.662;2023-12-20T13:41:44;6.75;;;3.83;;
31378;SDS011;61664;48.112;11.662;2023-12-20T13:44:11;3.75;;;2.55;;
31378;SDS011;61664;48.112;11.662;2023-12-20T13:46:38;2.75;;;2.55;;
31378;SDS011;61664;48.112;11.662;2023-12-20T13:49:07;2.60;;;2.08;;
31378;SDS011;61664;48.112;11.662;2023-12-20T13:51:34;2.10;;;1.85;;
31378;SDS011;61664;48.112;11.662;2023-12-20T13:54:01;2.10;;;1.98;;
31378;SDS011;61664;48.112;11.662;2023-12-20T13:56:28;2.75;;;2.38;;
31378;SDS011;61664;48.112;11.662;2023-12-20T13:58:55;2.20;;;1.70;;
31378;SDS011;61664;48.112;11.662;2023-12-20T14:01:23;2.60;;;2.40;;
31378;SDS011;61664;48.112;11.662;2023-12-20T14:03:50;3.15;;;2.35;;
31378;SDS011;61664;48.112;11.662;2023-12-20T14:06:17;1.65;;;1.50;;
31378;SDS011;61664;48.112;11.662;2023-12-20T14:08:44;1.85;;;1.75;;
31378;SDS011;61664;48.112;11.662;2023-12-20T14:11:11;3.55;;;2.63;;
31378;SDS011;61664;48.112;11.662;2023-12-20T14:13:39;2.33;;;2.15;;
31378;SDS011;61664;48.112;11.662;2023-12-20T14:16:06;2.67;;;2.47;;
31378;SDS011;61664;48.112;11.662;2023-12-20T14:18:33;3.22;;;2.80;;
31378;SDS011;61664;48.112;11.662;2023-12-20T14:21:00;2.97;;;2.78;;
31378;SDS011;61664;48.112;11.662;2023-12-20T14:23:27;2.75;;;2.20;;
31378;SDS011;61664;48.112;11.662;2023-12-20T14:25:54;2.50;;;2.30;;
31378;SDS011;61664;48.112;11.662;2023-12-20T14:28:22;3.55;;;2.33;;
31378;SDS011;61664;48.112;11.662;2023-12-20T14:30:49;2.65;;;2.40;;
31378;SDS011;61664;48.112;11.662;2023-12-20T14:33:16;3.78;;;3.05;;
31378;SDS011;61664;48.112;11.662;2023-12-20T14:35:46;6.32;;;2.78;;
31378;SDS011;61664;48.112;11.662;2023-12-20T14:38:13;3.80;;;2.88;;
31378;SDS011;61664;48.112;11.662;2023-12-20T14:40:41;3.63;;;2.95;;
31378;SDS011;61664;48.112;11.662;2023-12-20T14:43:08;3.65;;;3.08;;
31378;SDS011;61664;48.112;11.662;2023-12-20T14:45:35;4.55;;;3.20;;
31378;SDS011;61664;48.112;11.662;2023-12-20T14:48:02;3.10;;;2.78;;
31378;SDS011;61664;48.112;11.662;2023-12-20T14:50:29;3.45;;;2.65;;
31378;SDS011;61664;48.112;11.662;2023-12-20T14:52:56;2.70;;;2.50;;
31378;SDS011;61664;48.112;11.662;2023-12-20T14:55:23;4.10;;;2.65;;
31378;SDS011;61664;48.112;11.662;2023-12-20T14:57:53;5.60;;;3.10;;